sensor_id;sensor_type;location;lat;lon;timestamp;temperature;humidity
54202;DHT22;40108;53.152;5.844;2023-06-22T00:00:53;17.50;90.80
54202;DHT22;40108;53.152;5.844;2023-06-22T00:03:21;17.50;90.90
54202;DHT22;40108;53.152;5.844;2023-06-22T00:05:47;17.50;90.90
54202;DHT22;40108;53.152;5.844;2023-06-22T00:08:14;17.50;91.00
54202;DHT22;40108;53.152;5.844;2023-06-22T00:10:40;17.50;91.00
54202;DHT22;40108;53.152;5.844;2023-06-22T00:13:07;17.60;91.10
54202;DHT22;40108;53.152;5.844;2023-06-22T00:15:33;17.50;90.60
54202;DHT22;40108;53.152;5.844;2023-06-22T00:17:59;17.40;91.20
54202;DHT22;40108;53.152;5.844;2023-06-22T00:20:28;17.40;91.70
54202;DHT22;40108;53.152;5.844;2023-06-22T00:22:56;17.20;91.90
54202;DHT22;40108;53.152;5.844;2023-06-22T00:25:22;17.20;91.70
54202;DHT22;40108;53.152;5.844;2023-06-22T00:27:48;17.10;91.50
54202;DHT22;40108;53.152;5.844;2023-06-22T00:30:16;17.10;91.60
54202;DHT22;40108;53.152;5.844;2023-06-22T00:32:42;17.10;91.50
54202;DHT22;40108;53.152;5.844;2023-06-22T00:35:08;17.00;91.50
54202;DHT22;40108;53.152;5.844;2023-06-22T00:37:38;17.00;91.60
54202;DHT22;40108;53.152;5.844;2023-06-22T00:40:06;17.00;91.30
54202;DHT22;40108;53.152;5.844;2023-06-22T00:42:34;16.90;91.70
54202;DHT22;40108;53.152;5.844;2023-06-22T00:45:00;16.90;91.80
54202;DHT22;40108;53.152;5.844;2023-06-22T00:47:27;16.90;92.30
54202;DHT22;40108;53.152;5.844;2023-06-22T00:49:53;16.90;92.60
54202;DHT22;40108;53.152;5.844;2023-06-22T00:52:22;16.80;93.20
54202;DHT22;40108;53.152;5.844;2023-06-22T00:54:53;16.80;93.20
54202;DHT22;40108;53.152;5.844;2023-06-22T00:57:20;16.80;93.60
54202;DHT22;40108;53.152;5.844;2023-06-22T00:59:48;16.80;93.20
54202;DHT22;40108;53.152;5.844;2023-06-22T01:02:14;16.80;93.10
54202;DHT22;40108;53.152;5.844;2023-06-22T01:04:40;16.80;93.10
54202;DHT22;40108;53.152;5.844;2023-06-22T01:07:24;16.70;93.20
54202;DHT22;40108;53.152;5.844;2023-06-22T01:10:16;16.70;93.00
54202;DHT22;40108;53.152;5.844;2023-06-22T01:12:55;16.70;93.40
54202;DHT22;40108;53.152;5.844;2023-06-22T01:15:35;16.70;93.50
54202;DHT22;40108;53.152;5.844;2023-06-22T01:18:04;16.70;93.50
54202;DHT22;40108;53.152;5.844;2023-06-22T01:20:34;16.70;93.80
54202;DHT22;40108;53.152;5.844;2023-06-22T01:25:53;16.70;94.00
54202;DHT22;40108;53.152;5.844;2023-06-22T01:31:04;16.80;93.90
54202;DHT22;40108;53.152;5.844;2023-06-22T01:33:34;16.80;94.10
54202;DHT22;40108;53.152;5.844;2023-06-22T01:36:01;16.80;93.90
54202;DHT22;40108;53.152;5.844;2023-06-22T01:38:29;16.80;94.40
54202;DHT22;40108;53.152;5.844;2023-06-22T01:40:56;16.90;94.70
54202;DHT22;40108;53.152;5.844;2023-06-22T01:43:25;16.90;94.80
54202;DHT22;40108;53.152;5.844;2023-06-22T01:45:52;17.00;94.90
54202;DHT22;40108;53.152;5.844;2023-06-22T01:48:19;17.00;94.80
54202;DHT22;40108;53.152;5.844;2023-06-22T01:50:47;17.10;94.80
54202;DHT22;40108;53.152;5.844;2023-06-22T01:53:13;17.10;94.70
54202;DHT22;40108;53.152;5.844;2023-06-22T01:55:38;17.10;94.60
54202;DHT22;40108;53.152;5.844;2023-06-22T01:58:04;17.10;94.40
54202;DHT22;40108;53.152;5.844;2023-06-22T02:00:34;17.10;94.20
54202;DHT22;40108;53.152;5.844;2023-06-22T02:03:11;17.10;94.10
54202;DHT22;40108;53.152;5.844;2023-06-22T02:05:47;17.10;93.90
54202;DHT22;40108;53.152;5.844;2023-06-22T02:08:25;17.10;93.80
54202;DHT22;40108;53.152;5.844;2023-06-22T02:10:51;17.10;93.60
54202;DHT22;40108;53.152;5.844;2023-06-22T02:13:18;17.10;93.40
54202;DHT22;40108;53.152;5.844;2023-06-22T02:15:45;17.10;93.30
54202;DHT22;40108;53.152;5.844;2023-06-22T02:18:12;17.10;93.20
54202;DHT22;40108;53.152;5.844;2023-06-22T02:20:39;17.00;93.10
54202;DHT22;40108;53.152;5.844;2023-06-22T02:23:06;17.00;92.90
54202;DHT22;40108;53.152;5.844;2023-06-22T02:25:33;16.90;92.80
54202;DHT22;40108;53.152;5.844;2023-06-22T02:27:59;16.90;92.90
54202;DHT22;40108;53.152;5.844;2023-06-22T02:30:24;16.90;93.00
54202;DHT22;40108;53.152;5.844;2023-06-22T02:32:50;16.80;93.00
54202;DHT22;40108;53.152;5.844;2023-06-22T02:35:25;16.80;93.00
54202;DHT22;40108;53.152;5.844;2023-06-22T02:37:51;16.80;93.00
54202;DHT22;40108;53.152;5.844;2023-06-22T02:40:17;16.80;92.90
54202;DHT22;40108;53.152;5.844;2023-06-22T02:42:43;16.80;92.80
54202;DHT22;40108;53.152;5.844;2023-06-22T02:45:09;16.70;92.70
54202;DHT22;40108;53.152;5.844;2023-06-22T02:47:34;16.70;92.70
54202;DHT22;40108;53.152;5.844;2023-06-22T02:50:01;16.60;92.70
54202;DHT22;40108;53.152;5.844;2023-06-22T02:52:26;16.60;92.70
54202;DHT22;40108;53.152;5.844;2023-06-22T02:54:52;16.50;92.70
54202;DHT22;40108;53.152;5.844;2023-06-22T02:57:18;16.50;92.90
54202;DHT22;40108;53.152;5.844;2023-06-22T02:59:44;16.40;92.70
54202;DHT22;40108;53.152;5.844;2023-06-22T03:02:09;16.40;92.90
54202;DHT22;40108;53.152;5.844;2023-06-22T03:04:36;16.30;92.90
54202;DHT22;40108;53.152;5.844;2023-06-22T03:07:02;16.30;92.90
54202;DHT22;40108;53.152;5.844;2023-06-22T03:09:28;16.20;93.00
54202;DHT22;40108;53.152;5.844;2023-06-22T03:11:54;16.20;93.00
54202;DHT22;40108;53.152;5.844;2023-06-22T03:14:20;16.10;93.10
54202;DHT22;40108;53.152;5.844;2023-06-22T03:16:46;16.10;93.40
54202;DHT22;40108;53.152;5.844;2023-06-22T03:19:12;16.10;93.50
54202;DHT22;40108;53.152;5.844;2023-06-22T03:21:39;16.10;93.40
54202;DHT22;40108;53.152;5.844;2023-06-22T03:24:06;16.10;93.50
54202;DHT22;40108;53.152;5.844;2023-06-22T03:26:32;16.10;93.40
54202;DHT22;40108;53.152;5.844;2023-06-22T03:28:58;16.10;93.40
54202;DHT22;40108;53.152;5.844;2023-06-22T03:31:24;16.10;93.40
54202;DHT22;40108;53.152;5.844;2023-06-22T03:33:50;16.10;93.40
54202;DHT22;40108;53.152;5.844;2023-06-22T03:36:17;16.00;93.40
54202;DHT22;40108;53.152;5.844;2023-06-22T03:38:48;16.00;93.40
54202;DHT22;40108;53.152;5.844;2023-06-22T03:41:15;16.00;93.50
54202;DHT22;40108;53.152;5.844;2023-06-22T03:43:41;15.90;93.50
54202;DHT22;40108;53.152;5.844;2023-06-22T03:46:07;15.90;93.70
54202;DHT22;40108;53.152;5.844;2023-06-22T03:48:33;15.90;93.80
54202;DHT22;40108;53.152;5.844;2023-06-22T03:50:59;16.00;93.90
54202;DHT22;40108;53.152;5.844;2023-06-22T03:53:25;16.00;93.90
54202;DHT22;40108;53.152;5.844;2023-06-22T03:55:52;16.00;94.10
54202;DHT22;40108;53.152;5.844;2023-06-22T03:58:19;16.00;94.10
54202;DHT22;40108;53.152;5.844;2023-06-22T04:00:52;16.00;94.20
54202;DHT22;40108;53.152;5.844;2023-06-22T04:03:18;16.10;94.30
54202;DHT22;40108;53.152;5.844;2023-06-22T04:05:45;16.10;94.30
54202;DHT22;40108;53.152;5.844;2023-06-22T04:08:12;16.10;94.40
54202;DHT22;40108;53.152;5.844;2023-06-22T04:10:38;16.20;94.40
54202;DHT22;40108;53.152;5.844;2023-06-22T04:13:04;16.20;94.40
54202;DHT22;40108;53.152;5.844;2023-06-22T04:15:30;16.20;94.30
54202;DHT22;40108;53.152;5.844;2023-06-22T04:17:56;16.30;94.40
54202;DHT22;40108;53.152;5.844;2023-06-22T04:20:23;16.30;94.30
54202;DHT22;40108;53.152;5.844;2023-06-22T04:22:55;16.30;94.40
54202;DHT22;40108;53.152;5.844;2023-06-22T04:25:21;16.30;94.40
54202;DHT22;40108;53.152;5.844;2023-06-22T04:27:48;16.30;94.30
54202;DHT22;40108;53.152;5.844;2023-06-22T04:30:14;16.30;94.40
54202;DHT22;40108;53.152;5.844;2023-06-22T04:32:44;16.40;94.20
54202;DHT22;40108;53.152;5.844;2023-06-22T04:35:10;16.40;94.20
54202;DHT22;40108;53.152;5.844;2023-06-22T04:37:36;16.40;94.30
54202;DHT22;40108;53.152;5.844;2023-06-22T04:40:02;16.40;94.10
54202;DHT22;40108;53.152;5.844;2023-06-22T04:42:30;16.40;93.90
54202;DHT22;40108;53.152;5.844;2023-06-22T04:44:55;16.40;93.90
54202;DHT22;40108;53.152;5.844;2023-06-22T04:47:21;16.40;93.90
54202;DHT22;40108;53.152;5.844;2023-06-22T04:49:47;16.40;94.00
54202;DHT22;40108;53.152;5.844;2023-06-22T04:52:13;16.40;93.90
54202;DHT22;40108;53.152;5.844;2023-06-22T04:54:43;16.40;93.90
54202;DHT22;40108;53.152;5.844;2023-06-22T04:57:16;16.50;93.80
54202;DHT22;40108;53.152;5.844;2023-06-22T04:59:42;16.50;93.90
54202;DHT22;40108;53.152;5.844;2023-06-22T05:02:09;16.50;93.90
54202;DHT22;40108;53.152;5.844;2023-06-22T05:04:35;16.50;93.90
54202;DHT22;40108;53.152;5.844;2023-06-22T05:07:04;16.50;93.80
54202;DHT22;40108;53.152;5.844;2023-06-22T05:09:30;16.50;93.90
54202;DHT22;40108;53.152;5.844;2023-06-22T05:11:57;16.60;94.10
54202;DHT22;40108;53.152;5.844;2023-06-22T05:14:23;16.60;94.10
54202;DHT22;40108;53.152;5.844;2023-06-22T05:16:49;16.60;94.00
54202;DHT22;40108;53.152;5.844;2023-06-22T05:19:17;16.70;93.90
54202;DHT22;40108;53.152;5.844;2023-06-22T05:21:43;16.80;93.90
54202;DHT22;40108;53.152;5.844;2023-06-22T05:24:09;16.90;93.70
54202;DHT22;40108;53.152;5.844;2023-06-22T05:26:35;16.90;93.80
54202;DHT22;40108;53.152;5.844;2023-06-22T05:29:02;17.00;93.60
54202;DHT22;40108;53.152;5.844;2023-06-22T05:31:28;17.10;93.60
54202;DHT22;40108;53.152;5.844;2023-06-22T05:33:55;17.10;93.60
54202;DHT22;40108;53.152;5.844;2023-06-22T05:36:21;17.20;93.50
54202;DHT22;40108;53.152;5.844;2023-06-22T05:38:53;17.30;93.50
54202;DHT22;40108;53.152;5.844;2023-06-22T05:41:19;17.40;93.40
54202;DHT22;40108;53.152;5.844;2023-06-22T05:43:45;17.50;93.30
54202;DHT22;40108;53.152;5.844;2023-06-22T05:46:11;17.50;93.30
54202;DHT22;40108;53.152;5.844;2023-06-22T05:48:36;17.60;93.30
54202;DHT22;40108;53.152;5.844;2023-06-22T05:51:02;17.60;93.40
54202;DHT22;40108;53.152;5.844;2023-06-22T05:53:28;17.70;93.40
54202;DHT22;40108;53.152;5.844;2023-06-22T05:55:54;17.80;93.40
54202;DHT22;40108;53.152;5.844;2023-06-22T05:58:19;17.90;93.50
54202;DHT22;40108;53.152;5.844;2023-06-22T06:00:45;18.00;93.50
54202;DHT22;40108;53.152;5.844;2023-06-22T06:03:12;18.10;93.30
54202;DHT22;40108;53.152;5.844;2023-06-22T06:05:38;18.20;93.00
54202;DHT22;40108;53.152;5.844;2023-06-22T06:08:05;18.30;92.80
54202;DHT22;40108;53.152;5.844;2023-06-22T06:10:32;18.40;92.60
54202;DHT22;40108;53.152;5.844;2023-06-22T06:12:59;18.50;92.50
54202;DHT22;40108;53.152;5.844;2023-06-22T06:15:27;18.60;92.50
54202;DHT22;40108;53.152;5.844;2023-06-22T06:17:53;18.60;91.50
54202;DHT22;40108;53.152;5.844;2023-06-22T06:20:22;18.70;91.40
54202;DHT22;40108;53.152;5.844;2023-06-22T06:22:49;18.80;91.60
54202;DHT22;40108;53.152;5.844;2023-06-22T06:25:15;18.90;91.50
54202;DHT22;40108;53.152;5.844;2023-06-22T06:27:50;19.00;91.30
54202;DHT22;40108;53.152;5.844;2023-06-22T06:30:17;19.10;90.90
54202;DHT22;40108;53.152;5.844;2023-06-22T06:32:44;19.10;90.90
54202;DHT22;40108;53.152;5.844;2023-06-22T06:35:12;19.10;90.50
54202;DHT22;40108;53.152;5.844;2023-06-22T06:37:41;19.30;91.00
54202;DHT22;40108;53.152;5.844;2023-06-22T06:40:07;19.40;90.20
54202;DHT22;40108;53.152;5.844;2023-06-22T06:42:40;19.50;90.30
54202;DHT22;40108;53.152;5.844;2023-06-22T06:45:11;19.60;89.80
54202;DHT22;40108;53.152;5.844;2023-06-22T06:47:38;19.60;89.20
54202;DHT22;40108;53.152;5.844;2023-06-22T06:50:05;19.60;89.10
54202;DHT22;40108;53.152;5.844;2023-06-22T06:52:31;19.80;88.90
54202;DHT22;40108;53.152;5.844;2023-06-22T06:54:57;19.80;88.20
54202;DHT22;40108;53.152;5.844;2023-06-22T06:57:22;19.90;88.40
54202;DHT22;40108;53.152;5.844;2023-06-22T06:59:49;19.90;87.40
54202;DHT22;40108;53.152;5.844;2023-06-22T07:02:15;20.00;87.80
54202;DHT22;40108;53.152;5.844;2023-06-22T07:04:41;20.20;86.80
54202;DHT22;40108;53.152;5.844;2023-06-22T07:07:07;20.40;87.40
54202;DHT22;40108;53.152;5.844;2023-06-22T07:09:33;20.60;86.60
54202;DHT22;40108;53.152;5.844;2023-06-22T07:11:58;20.80;85.50
54202;DHT22;40108;53.152;5.844;2023-06-22T07:14:24;21.00;85.10
54202;DHT22;40108;53.152;5.844;2023-06-22T07:16:50;21.20;85.00
54202;DHT22;40108;53.152;5.844;2023-06-22T07:19:16;21.50;84.40
54202;DHT22;40108;53.152;5.844;2023-06-22T07:21:41;21.70;84.00
54202;DHT22;40108;53.152;5.844;2023-06-22T07:24:07;21.60;79.60
54202;DHT22;40108;53.152;5.844;2023-06-22T07:26:33;21.60;80.30
54202;DHT22;40108;53.152;5.844;2023-06-22T07:28:59;21.80;79.70
54202;DHT22;40108;53.152;5.844;2023-06-22T07:31:25;21.90;79.30
54202;DHT22;40108;53.152;5.844;2023-06-22T07:33:51;22.00;77.80
54202;DHT22;40108;53.152;5.844;2023-06-22T07:36:17;21.90;76.80
54202;DHT22;40108;53.152;5.844;2023-06-22T07:38:43;22.10;78.50
54202;DHT22;40108;53.152;5.844;2023-06-22T07:41:09;22.30;79.30
54202;DHT22;40108;53.152;5.844;2023-06-22T07:43:35;22.40;74.80
54202;DHT22;40108;53.152;5.844;2023-06-22T07:46:03;22.50;76.40
54202;DHT22;40108;53.152;5.844;2023-06-22T07:48:29;22.60;75.80
54202;DHT22;40108;53.152;5.844;2023-06-22T07:50:55;22.60;74.80
54202;DHT22;40108;53.152;5.844;2023-06-22T07:53:21;23.00;75.80
54202;DHT22;40108;53.152;5.844;2023-06-22T07:55:47;23.10;74.30
54202;DHT22;40108;53.152;5.844;2023-06-22T07:58:13;23.10;74.10
54202;DHT22;40108;53.152;5.844;2023-06-22T08:00:39;23.10;72.40
54202;DHT22;40108;53.152;5.844;2023-06-22T08:03:05;23.00;74.60
54202;DHT22;40108;53.152;5.844;2023-06-22T08:05:31;23.10;75.30
54202;DHT22;40108;53.152;5.844;2023-06-22T08:07:57;23.30;73.90
54202;DHT22;40108;53.152;5.844;2023-06-22T08:10:23;23.50;73.20
54202;DHT22;40108;53.152;5.844;2023-06-22T08:12:49;23.60;73.90
54202;DHT22;40108;53.152;5.844;2023-06-22T08:15:14;23.60;71.50
54202;DHT22;40108;53.152;5.844;2023-06-22T08:17:40;23.60;69.70
54202;DHT22;40108;53.152;5.844;2023-06-22T08:20:07;23.60;70.50
54202;DHT22;40108;53.152;5.844;2023-06-22T08:22:37;23.60;71.90
54202;DHT22;40108;53.152;5.844;2023-06-22T08:25:04;23.60;70.10
54202;DHT22;40108;53.152;5.844;2023-06-22T08:27:30;23.60;70.10
54202;DHT22;40108;53.152;5.844;2023-06-22T08:29:59;23.40;69.70
54202;DHT22;40108;53.152;5.844;2023-06-22T08:32:29;23.50;70.40
54202;DHT22;40108;53.152;5.844;2023-06-22T08:34:56;23.50;66.90
54202;DHT22;40108;53.152;5.844;2023-06-22T08:37:23;23.60;70.20
54202;DHT22;40108;53.152;5.844;2023-06-22T08:39:59;23.60;69.90
54202;DHT22;40108;53.152;5.844;2023-06-22T08:42:25;23.80;69.00
54202;DHT22;40108;53.152;5.844;2023-06-22T08:44:51;23.80;68.30
54202;DHT22;40108;53.152;5.844;2023-06-22T08:47:17;24.00;68.80
54202;DHT22;40108;53.152;5.844;2023-06-22T08:49:42;24.10;69.80
54202;DHT22;40108;53.152;5.844;2023-06-22T08:52:08;24.30;66.80
54202;DHT22;40108;53.152;5.844;2023-06-22T08:54:34;24.50;67.30
54202;DHT22;40108;53.152;5.844;2023-06-22T08:57:01;24.60;68.10
54202;DHT22;40108;53.152;5.844;2023-06-22T08:59:27;24.60;66.30
54202;DHT22;40108;53.152;5.844;2023-06-22T09:01:53;24.80;64.10
54202;DHT22;40108;53.152;5.844;2023-06-22T09:04:19;24.60;64.40
54202;DHT22;40108;53.152;5.844;2023-06-22T09:06:48;24.70;64.60
54202;DHT22;40108;53.152;5.844;2023-06-22T09:09:16;24.90;66.60
54202;DHT22;40108;53.152;5.844;2023-06-22T09:11:42;25.10;66.80
54202;DHT22;40108;53.152;5.844;2023-06-22T09:14:08;25.30;64.70
54202;DHT22;40108;53.152;5.844;2023-06-22T09:16:34;25.40;65.90
54202;DHT22;40108;53.152;5.844;2023-06-22T09:19:00;25.60;66.20
54202;DHT22;40108;53.152;5.844;2023-06-22T09:21:26;25.70;63.10
54202;DHT22;40108;53.152;5.844;2023-06-22T09:23:52;25.80;62.10
54202;DHT22;40108;53.152;5.844;2023-06-22T09:26:18;25.90;63.40
54202;DHT22;40108;53.152;5.844;2023-06-22T09:28:44;26.00;62.00
54202;DHT22;40108;53.152;5.844;2023-06-22T09:31:10;26.10;59.40
54202;DHT22;40108;53.152;5.844;2023-06-22T09:33:36;26.20;61.20
54202;DHT22;40108;53.152;5.844;2023-06-22T09:36:04;26.30;61.00
54202;DHT22;40108;53.152;5.844;2023-06-22T09:38:35;26.30;61.40
54202;DHT22;40108;53.152;5.844;2023-06-22T09:41:01;26.60;61.80
54202;DHT22;40108;53.152;5.844;2023-06-22T09:43:27;26.60;59.80
54202;DHT22;40108;53.152;5.844;2023-06-22T09:45:53;26.40;55.70
54202;DHT22;40108;53.152;5.844;2023-06-22T09:48:19;26.30;59.20
54202;DHT22;40108;53.152;5.844;2023-06-22T09:50:44;26.20;58.30
54202;DHT22;40108;53.152;5.844;2023-06-22T09:53:10;26.20;60.40
54202;DHT22;40108;53.152;5.844;2023-06-22T09:55:36;26.30;59.40
54202;DHT22;40108;53.152;5.844;2023-06-22T09:58:02;26.50;61.70
54202;DHT22;40108;53.152;5.844;2023-06-22T10:00:27;26.50;57.90
54202;DHT22;40108;53.152;5.844;2023-06-22T10:02:53;26.80;60.30
54202;DHT22;40108;53.152;5.844;2023-06-22T10:05:19;26.90;58.80
54202;DHT22;40108;53.152;5.844;2023-06-22T10:07:45;27.10;59.30
54202;DHT22;40108;53.152;5.844;2023-06-22T10:10:12;27.30;55.00
54202;DHT22;40108;53.152;5.844;2023-06-22T10:12:45;27.50;55.70
54202;DHT22;40108;53.152;5.844;2023-06-22T10:15:11;27.60;57.40
54202;DHT22;40108;53.152;5.844;2023-06-22T10:17:37;27.50;52.50
54202;DHT22;40108;53.152;5.844;2023-06-22T10:20:05;27.50;55.00
54202;DHT22;40108;53.152;5.844;2023-06-22T10:22:40;27.40;55.20
54202;DHT22;40108;53.152;5.844;2023-06-22T10:25:07;27.50;54.30
54202;DHT22;40108;53.152;5.844;2023-06-22T10:27:33;27.50;55.80
54202;DHT22;40108;53.152;5.844;2023-06-22T10:29:59;27.80;56.60
54202;DHT22;40108;53.152;5.844;2023-06-22T10:32:25;27.90;52.10
54202;DHT22;40108;53.152;5.844;2023-06-22T10:34:51;27.80;51.20
54202;DHT22;40108;53.152;5.844;2023-06-22T10:37:16;27.70;51.90
54202;DHT22;40108;53.152;5.844;2023-06-22T10:39:42;27.60;53.20
54202;DHT22;40108;53.152;5.844;2023-06-22T10:42:08;27.70;54.10
54202;DHT22;40108;53.152;5.844;2023-06-22T10:44:34;27.80;52.60
54202;DHT22;40108;53.152;5.844;2023-06-22T10:46:59;28.00;52.70
54202;DHT22;40108;53.152;5.844;2023-06-22T10:49:25;28.00;54.10
54202;DHT22;40108;53.152;5.844;2023-06-22T10:51:51;28.00;52.70
54202;DHT22;40108;53.152;5.844;2023-06-22T10:54:16;28.10;51.90
54202;DHT22;40108;53.152;5.844;2023-06-22T10:56:44;28.30;51.90
54202;DHT22;40108;53.152;5.844;2023-06-22T10:59:10;28.50;53.30
54202;DHT22;40108;53.152;5.844;2023-06-22T11:01:36;28.50;49.80
54202;DHT22;40108;53.152;5.844;2023-06-22T11:04:02;28.50;49.80
54202;DHT22;40108;53.152;5.844;2023-06-22T11:06:28;28.60;51.50
54202;DHT22;40108;53.152;5.844;2023-06-22T11:08:54;28.50;50.40
54202;DHT22;40108;53.152;5.844;2023-06-22T11:11:19;28.50;47.70
54202;DHT22;40108;53.152;5.844;2023-06-22T11:13:45;28.30;49.30
54202;DHT22;40108;53.152;5.844;2023-06-22T11:16:11;28.00;49.10
54202;DHT22;40108;53.152;5.844;2023-06-22T11:18:37;27.70;51.50
54202;DHT22;40108;53.152;5.844;2023-06-22T11:21:03;27.70;51.90
54202;DHT22;40108;53.152;5.844;2023-06-22T11:23:28;27.80;53.60
54202;DHT22;40108;53.152;5.844;2023-06-22T11:25:54;27.80;51.00
54202;DHT22;40108;53.152;5.844;2023-06-22T11:28:20;27.60;52.00
54202;DHT22;40108;53.152;5.844;2023-06-22T11:30:46;27.60;54.00
54202;DHT22;40108;53.152;5.844;2023-06-22T11:33:12;27.60;54.20
54202;DHT22;40108;53.152;5.844;2023-06-22T11:35:37;27.70;53.50
54202;DHT22;40108;53.152;5.844;2023-06-22T11:38:03;27.60;50.30
54202;DHT22;40108;53.152;5.844;2023-06-22T11:40:30;27.70;51.90
54202;DHT22;40108;53.152;5.844;2023-06-22T11:42:56;27.80;53.40
54202;DHT22;40108;53.152;5.844;2023-06-22T11:45:22;27.70;54.40
54202;DHT22;40108;53.152;5.844;2023-06-22T11:47:48;27.80;55.00
54202;DHT22;40108;53.152;5.844;2023-06-22T11:50:14;27.80;55.30
54202;DHT22;40108;53.152;5.844;2023-06-22T11:52:40;27.90;54.80
54202;DHT22;40108;53.152;5.844;2023-06-22T11:55:06;28.00;54.90
54202;DHT22;40108;53.152;5.844;2023-06-22T11:57:36;28.00;56.20
54202;DHT22;40108;53.152;5.844;2023-06-22T12:00:06;28.00;56.20
54202;DHT22;40108;53.152;5.844;2023-06-22T12:02:41;27.70;54.80
54202;DHT22;40108;53.152;5.844;2023-06-22T12:05:07;27.60;56.50
54202;DHT22;40108;53.152;5.844;2023-06-22T12:07:33;27.40;55.40
54202;DHT22;40108;53.152;5.844;2023-06-22T12:09:59;27.30;56.50
54202;DHT22;40108;53.152;5.844;2023-06-22T12:12:25;27.10;57.10
54202;DHT22;40108;53.152;5.844;2023-06-22T12:14:50;27.00;57.40
54202;DHT22;40108;53.152;5.844;2023-06-22T12:17:16;26.80;57.00
54202;DHT22;40108;53.152;5.844;2023-06-22T12:19:42;26.60;57.00
54202;DHT22;40108;53.152;5.844;2023-06-22T12:22:07;26.50;57.20
54202;DHT22;40108;53.152;5.844;2023-06-22T12:24:33;26.30;57.50
54202;DHT22;40108;53.152;5.844;2023-06-22T12:26:59;26.30;58.90
54202;DHT22;40108;53.152;5.844;2023-06-22T12:29:24;26.10;57.90
54202;DHT22;40108;53.152;5.844;2023-06-22T12:31:50;26.00;58.20
54202;DHT22;40108;53.152;5.844;2023-06-22T12:34:16;25.90;58.80
54202;DHT22;40108;53.152;5.844;2023-06-22T12:36:41;25.70;58.50
54202;DHT22;40108;53.152;5.844;2023-06-22T12:39:07;25.70;58.60
54202;DHT22;40108;53.152;5.844;2023-06-22T12:41:33;25.60;59.60
54202;DHT22;40108;53.152;5.844;2023-06-22T12:43:58;25.60;59.20
54202;DHT22;40108;53.152;5.844;2023-06-22T12:46:24;25.60;58.40
54202;DHT22;40108;53.152;5.844;2023-06-22T12:48:50;25.60;58.90
54202;DHT22;40108;53.152;5.844;2023-06-22T12:51:24;25.50;58.30
54202;DHT22;40108;53.152;5.844;2023-06-22T12:53:50;25.50;58.70
54202;DHT22;40108;53.152;5.844;2023-06-22T12:56:16;25.40;59.20
54202;DHT22;40108;53.152;5.844;2023-06-22T12:58:41;25.40;59.10
54202;DHT22;40108;53.152;5.844;2023-06-22T13:01:07;25.40;59.30
54202;DHT22;40108;53.152;5.844;2023-06-22T13:03:33;25.40;59.10
54202;DHT22;40108;53.152;5.844;2023-06-22T13:05:58;25.40;59.00
54202;DHT22;40108;53.152;5.844;2023-06-22T13:08:25;25.30;58.00
54202;DHT22;40108;53.152;5.844;2023-06-22T13:10:50;25.20;58.50
54202;DHT22;40108;53.152;5.844;2023-06-22T13:13:16;25.10;59.70
54202;DHT22;40108;53.152;5.844;2023-06-22T13:15:42;25.10;59.10
54202;DHT22;40108;53.152;5.844;2023-06-22T13:18:08;25.00;59.00
54202;DHT22;40108;53.152;5.844;2023-06-22T13:20:34;25.00;59.00
54202;DHT22;40108;53.152;5.844;2023-06-22T13:22:59;24.90;58.60
54202;DHT22;40108;53.152;5.844;2023-06-22T13:25:25;24.80;58.60
54202;DHT22;40108;53.152;5.844;2023-06-22T13:27:52;24.70;58.50
54202;DHT22;40108;53.152;5.844;2023-06-22T13:30:18;24.60;58.60
54202;DHT22;40108;53.152;5.844;2023-06-22T13:32:43;24.60;57.90
54202;DHT22;40108;53.152;5.844;2023-06-22T13:35:10;24.50;57.30
54202;DHT22;40108;53.152;5.844;2023-06-22T13:37:36;24.50;57.40
54202;DHT22;40108;53.152;5.844;2023-06-22T13:40:02;24.50;58.40
54202;DHT22;40108;53.152;5.844;2023-06-22T13:42:31;24.50;57.90
54202;DHT22;40108;53.152;5.844;2023-06-22T13:44:56;24.40;57.70
54202;DHT22;40108;53.152;5.844;2023-06-22T13:47:22;24.40;56.90
54202;DHT22;40108;53.152;5.844;2023-06-22T13:49:48;24.20;56.70
54202;DHT22;40108;53.152;5.844;2023-06-22T13:52:13;24.10;57.00
54202;DHT22;40108;53.152;5.844;2023-06-22T13:54:39;24.10;57.60
54202;DHT22;40108;53.152;5.844;2023-06-22T13:57:05;24.00;58.50
54202;DHT22;40108;53.152;5.844;2023-06-22T13:59:31;23.90;58.30
54202;DHT22;40108;53.152;5.844;2023-06-22T14:01:57;23.80;57.50
54202;DHT22;40108;53.152;5.844;2023-06-22T14:04:25;23.70;57.40
54202;DHT22;40108;53.152;5.844;2023-06-22T14:06:51;23.60;57.70
54202;DHT22;40108;53.152;5.844;2023-06-22T14:09:17;23.50;57.40
54202;DHT22;40108;53.152;5.844;2023-06-22T14:11:43;23.40;58.40
54202;DHT22;40108;53.152;5.844;2023-06-22T14:14:08;23.40;58.30
54202;DHT22;40108;53.152;5.844;2023-06-22T14:16:34;23.30;58.90
54202;DHT22;40108;53.152;5.844;2023-06-22T14:19:00;23.20;57.30
54202;DHT22;40108;53.152;5.844;2023-06-22T14:21:26;23.10;57.90
54202;DHT22;40108;53.152;5.844;2023-06-22T14:23:52;23.00;58.20
54202;DHT22;40108;53.152;5.844;2023-06-22T14:26:18;23.00;58.80
54202;DHT22;40108;53.152;5.844;2023-06-22T14:28:47;23.00;59.30
54202;DHT22;40108;53.152;5.844;2023-06-22T14:31:16;22.90;59.00
54202;DHT22;40108;53.152;5.844;2023-06-22T14:33:46;22.80;58.80
54202;DHT22;40108;53.152;5.844;2023-06-22T14:36:13;22.80;59.10
54202;DHT22;40108;53.152;5.844;2023-06-22T14:38:39;22.70;59.00
54202;DHT22;40108;53.152;5.844;2023-06-22T14:41:05;22.70;58.90
54202;DHT22;40108;53.152;5.844;2023-06-22T14:43:31;22.60;59.00
54202;DHT22;40108;53.152;5.844;2023-06-22T14:45:56;22.60;58.80
54202;DHT22;40108;53.152;5.844;2023-06-22T14:48:22;22.60;59.10
54202;DHT22;40108;53.152;5.844;2023-06-22T14:50:48;22.60;59.40
54202;DHT22;40108;53.152;5.844;2023-06-22T14:53:14;22.60;59.80
54202;DHT22;40108;53.152;5.844;2023-06-22T14:55:40;22.60;59.80
54202;DHT22;40108;53.152;5.844;2023-06-22T14:58:06;22.60;60.40
54202;DHT22;40108;53.152;5.844;2023-06-22T15:00:32;22.60;60.20
54202;DHT22;40108;53.152;5.844;2023-06-22T15:02:58;22.60;60.30
54202;DHT22;40108;53.152;5.844;2023-06-22T15:05:25;22.50;59.90
54202;DHT22;40108;53.152;5.844;2023-06-22T15:07:50;22.50;59.50
54202;DHT22;40108;53.152;5.844;2023-06-22T15:10:17;22.50;59.40
54202;DHT22;40108;53.152;5.844;2023-06-22T15:12:42;22.50;60.60
54202;DHT22;40108;53.152;5.844;2023-06-22T15:15:08;22.50;59.90
54202;DHT22;40108;53.152;5.844;2023-06-22T15:17:34;22.50;60.00
54202;DHT22;40108;53.152;5.844;2023-06-22T15:20:00;22.40;59.70
54202;DHT22;40108;53.152;5.844;2023-06-22T15:22:26;22.40;59.90
54202;DHT22;40108;53.152;5.844;2023-06-22T15:24:51;22.40;59.70
54202;DHT22;40108;53.152;5.844;2023-06-22T15:27:23;22.40;59.90
54202;DHT22;40108;53.152;5.844;2023-06-22T15:29:49;22.40;60.60
54202;DHT22;40108;53.152;5.844;2023-06-22T15:32:15;22.30;61.30